createdAt,value
2023-05-16T06:25:19.519Z,80.46
2023-05-16T06:26:20.582Z,78.54
2023-05-16T06:27:20.454Z,78.28
2023-05-16T06:28:20.698Z,77.98
2023-05-16T06:29:20.469Z,77.52
2023-05-16T06:30:19.420Z,77.39
2023-05-16T06:31:19.489Z,77.76
2023-05-16T06:32:19.491Z,77.86
2023-05-16T06:33:19.423Z,77.21
2023-05-16T06:34:20.397Z,77.35
2023-05-16T06:35:20.402Z,76.96
2023-05-16T06:36:19.378Z,76.69
2023-05-16T06:37:20.396Z,76.22
2023-05-16T06:38:19.386Z,75.97
2023-05-16T06:39:20.351Z,75.75
2023-05-16T06:40:20.367Z,75.14
2023-05-16T06:41:20.372Z,75.27
2023-05-16T06:42:19.325Z,75.16
2023-05-16T06:43:20.352Z,75.10
2023-05-16T06:44:20.445Z,75.51
2023-05-16T06:45:20.833Z,75.27
2023-05-16T06:46:20.367Z,75.25
2023-05-16T06:47:20.381Z,75.79
2023-05-16T06:49:38.962Z,75.43
2023-05-16T06:51:58.035Z,75.61
2023-05-16T06:52:57.698Z,75.92
2023-05-16T06:53:58.698Z,76.03
2023-05-16T06:54:59.459Z,75.84
2023-05-16T06:55:58.050Z,75.55
2023-05-16T06:56:57.646Z,75.74
2023-05-16T06:59:17.422Z,75.80
2023-05-16T07:00:18.667Z,75.09
2023-05-16T07:01:18.078Z,74.83
2023-05-16T07:02:18.204Z,75.72
2023-05-16T07:03:18.129Z,75.33
2023-05-16T07:04:17.066Z,74.52
2023-05-16T07:05:18.037Z,74.49
2023-05-16T07:06:18.048Z,74.45
2023-05-16T07:07:17.018Z,74.38
2023-05-16T07:08:17.994Z,74.88
2023-05-16T07:09:16.959Z,74.73
2023-05-16T07:11:36.600Z,75.14
2023-05-16T07:12:37.774Z,75.47
2023-05-16T07:13:36.570Z,75.08
2023-05-16T07:14:36.492Z,74.75
2023-05-16T07:15:36.747Z,74.44
2023-05-16T07:16:36.511Z,74.46
2023-05-16T07:17:37.631Z,74.69
2023-05-16T07:18:37.595Z,76.05
2023-05-16T07:19:37.470Z,75.71
2023-05-16T07:20:36.459Z,74.84
2023-05-16T07:21:36.429Z,74.24
2023-05-16T07:22:36.527Z,74.11
2023-05-16T07:23:37.503Z,74.12
2023-05-16T07:24:37.434Z,74.21
2023-05-16T07:25:37.447Z,74.14
2023-05-16T07:26:37.423Z,74.72
2023-05-16T07:27:37.395Z,74.60
2023-05-16T07:28:37.501Z,74.42
2023-05-16T07:29:37.540Z,74.11
2023-05-16T07:30:37.386Z,73.80
2023-05-16T07:31:37.458Z,74.13
2023-05-16T07:32:37.394Z,74.53
2023-05-16T07:33:37.416Z,74.50
2023-05-16T07:34:37.345Z,74.47
2023-05-16T07:35:36.418Z,74.31
2023-05-16T07:36:36.427Z,74.32
2023-05-16T07:37:37.343Z,74.37
2023-05-16T07:38:37.355Z,74.96
2023-05-16T07:39:37.314Z,74.86
2023-05-16T07:40:37.318Z,75.29
2023-05-16T07:41:36.416Z,74.83
2023-05-16T07:42:37.290Z,74.50
2023-05-16T07:43:37.304Z,74.75
2023-05-16T07:44:37.325Z,75.25
2023-05-16T07:45:37.571Z,74.45
2023-05-16T07:46:38.118Z,75.30
2023-05-16T07:47:38.512Z,75.29
2023-05-16T07:49:56.162Z,75.74
2023-05-16T07:50:56.969Z,75.70
2023-05-16T07:53:15.498Z,75.42
2023-05-16T07:54:15.962Z,75.15
2023-05-16T07:55:15.920Z,74.88
2023-05-16T07:56:15.333Z,74.26
2023-05-16T07:57:15.266Z,74.25
2023-05-16T07:58:15.939Z,74.50
2023-05-16T07:59:14.897Z,74.90
2023-05-16T08:00:14.967Z,74.37
2023-05-16T08:01:15.878Z,74.07
2023-05-16T08:02:14.887Z,74.08
2023-05-16T08:04:34.345Z,74.08
2023-05-16T08:05:34.130Z,73.44
2023-05-16T08:06:35.063Z,73.59
2023-05-16T08:07:35.012Z,74.14
2023-05-16T08:08:34.973Z,73.69
2023-05-16T08:09:34.029Z,73.80
2023-05-16T08:10:34.935Z,73.90
2023-05-16T08:11:33.955Z,73.95
2023-05-16T08:12:34.983Z,73.59
2023-05-16T08:13:34.943Z,73.22
2023-05-16T08:14:34.931Z,73.40
2023-05-16T08:15:33.972Z,73.81
2023-05-16T08:16:33.931Z,73.43
2023-05-16T08:17:48.325Z,73.73
2023-05-16T08:18:34.997Z,73.44
2023-05-16T08:19:36.992Z,73.22
2023-05-16T08:21:53.026Z,73.36
2023-05-16T08:22:53.005Z,73.69
2023-05-16T08:23:54.154Z,73.61
2023-05-16T08:24:57.037Z,73.71
2023-05-16T08:25:54.349Z,74.18
2023-05-16T08:26:53.230Z,73.57
2023-05-16T08:27:56.964Z,73.86
2023-05-16T08:28:53.977Z,74.27
2023-05-16T08:29:53.956Z,73.23
2023-05-16T08:30:54.114Z,73.98
2023-05-16T08:31:54.092Z,73.43
2023-05-16T08:32:53.975Z,72.72
2023-05-16T08:33:53.989Z,72.76
2023-05-16T08:34:53.908Z,72.78
2023-05-16T08:35:52.886Z,72.71
2023-05-16T08:36:53.912Z,72.94
2023-05-16T08:37:53.961Z,72.66
2023-05-16T08:38:52.887Z,71.79
2023-05-16T08:39:52.863Z,72.53
2023-05-16T08:40:53.846Z,73.54
2023-05-16T08:41:52.847Z,73.53
2023-05-16T08:42:52.901Z,73.12
2023-05-16T08:43:54.098Z,72.73
2023-05-16T08:44:52.829Z,73.39
2023-05-16T08:45:53.813Z,73.36
2023-05-16T08:46:53.900Z,73.02
2023-05-16T08:47:53.833Z,72.62
2023-05-16T08:48:53.824Z,72.64
2023-05-16T08:49:52.793Z,72.49
2023-05-16T08:50:53.788Z,71.73
2023-05-16T08:51:53.774Z,71.41
2023-05-16T08:52:53.809Z,71.64
2023-05-16T08:53:52.777Z,70.33
2023-05-16T08:55:09.104Z,71.21
2023-05-16T08:55:53.752Z,71.16
2023-05-16T08:56:52.784Z,71.33
2023-05-16T08:57:53.750Z,71.03
2023-05-16T08:58:53.127Z,70.77
2023-05-16T08:59:54.611Z,71.52
2023-05-16T09:00:52.889Z,71.46
2023-05-16T09:01:53.402Z,72.10
2023-05-16T09:02:52.801Z,72.26
2023-05-16T09:03:54.330Z,71.84
2023-05-16T09:06:12.101Z,70.65
2023-05-16T09:07:13.128Z,70.63
2023-05-16T09:08:12.687Z,70.45
2023-05-16T09:09:11.656Z,70.13
2023-05-16T09:10:12.756Z,69.22
2023-05-16T09:11:12.669Z,69.14
2023-05-16T09:12:11.900Z,69.62
2023-05-16T09:13:11.725Z,69.20
2023-05-16T09:14:13.212Z,69.30
2023-05-16T09:15:12.636Z,69.44
2023-05-16T09:16:11.628Z,69.12
2023-05-16T09:17:12.613Z,68.64
2023-05-16T09:18:12.869Z,68.65
2023-05-16T09:19:11.655Z,69.16
2023-05-16T09:20:12.616Z,69.02
2023-05-16T09:21:12.796Z,68.98
2023-05-16T09:22:12.593Z,68.92
2023-05-16T09:23:12.593Z,68.69
2023-05-16T09:24:12.614Z,68.62
2023-05-16T09:25:25.491Z,68.76
2023-05-16T09:26:12.568Z,69.40
2023-05-16T09:27:11.565Z,69.12
2023-05-16T09:28:12.593Z,69.96
2023-05-16T09:30:30.803Z,70.42
2023-05-16T09:31:31.581Z,69.93
2023-05-16T09:32:30.605Z,70.66
2023-05-16T09:33:30.588Z,71.16
2023-05-16T09:34:30.506Z,70.53
2023-05-16T09:35:43.152Z,70.68
2023-05-16T09:36:31.438Z,70.65
2023-05-16T09:37:30.468Z,70.82
2023-05-16T09:38:31.522Z,70.13
2023-05-16T09:39:31.518Z,70.48
2023-05-16T09:40:31.242Z,70.22
2023-05-16T09:41:46.118Z,70.22
2023-05-16T09:42:30.516Z,70.01
2023-05-16T09:44:49.491Z,69.59
2023-05-16T09:45:49.496Z,70.30
2023-05-16T09:46:49.588Z,70.14
2023-05-16T09:49:09.125Z,70.87
2023-05-16T09:50:09.661Z,71.11
2023-05-16T09:51:08.557Z,71.17
2023-05-16T09:52:10.907Z,72.12
2023-05-16T09:53:09.811Z,72.15
2023-05-16T09:54:10.368Z,73.72
2023-05-16T09:55:09.949Z,73.35
2023-05-16T09:56:09.916Z,73.12
2023-05-16T09:57:08.952Z,74.77
2023-05-16T09:58:08.991Z,74.45
2023-05-16T09:59:09.059Z,74.28
2023-05-16T10:00:09.054Z,74.81
2023-05-16T10:01:10.094Z,75.58
2023-05-16T10:02:10.213Z,75.48
2023-05-16T10:03:10.279Z,75.86
2023-05-16T10:04:10.269Z,75.19
2023-05-16T10:05:09.757Z,74.91
2023-05-16T10:06:10.249Z,75.13
2023-05-16T10:07:09.334Z,75.24
2023-05-16T10:08:09.284Z,75.81
2023-05-16T10:09:10.337Z,75.17
2023-05-16T10:10:09.291Z,75.37
2023-05-16T10:11:10.292Z,75.35
2023-05-16T10:12:10.340Z,74.81
2023-05-16T10:13:09.373Z,74.10
2023-05-16T10:14:11.087Z,73.84
2023-05-16T10:15:20.381Z,73.39
2023-05-16T10:17:29.144Z,72.66
2023-05-16T10:19:48.113Z,73.08
2023-05-16T10:20:48.263Z,72.23
2023-05-16T10:21:48.004Z,72.04
2023-05-16T10:22:49.185Z,72.09
2023-05-16T10:23:48.072Z,72.83
2023-05-16T10:24:48.042Z,72.38
2023-05-16T10:25:49.068Z,72.35
2023-05-16T10:26:48.064Z,72.70
2023-05-16T10:27:49.171Z,71.98
2023-05-16T10:28:49.164Z,71.61
2023-05-16T10:34:45.619Z,72.52
2023-05-16T10:35:46.620Z,72.39
2023-05-16T10:36:45.581Z,71.72
2023-05-16T10:37:46.600Z,70.88
2023-05-16T10:38:46.689Z,70.80
2023-05-16T10:39:45.609Z,71.30
2023-05-16T10:40:46.693Z,71.31
2023-05-16T10:41:46.603Z,71.31
2023-05-16T10:42:45.575Z,70.59
2023-05-16T10:43:45.761Z,71.26
2023-05-16T10:44:54.628Z,71.43
2023-05-16T10:45:46.590Z,71.91
2023-05-16T10:46:46.535Z,71.49
2023-05-16T10:47:46.522Z,72.14
2023-05-16T10:48:47.140Z,72.40
2023-05-16T10:49:46.459Z,72.53
2023-05-16T10:50:46.482Z,72.63
2023-05-16T10:51:45.451Z,73.24
2023-05-16T10:52:46.666Z,72.38
2023-05-16T10:53:46.689Z,72.28
2023-05-16T10:54:46.468Z,73.02
2023-05-16T10:55:45.424Z,73.52
2023-05-16T10:56:45.404Z,73.38
2023-05-16T10:57:45.453Z,73.02
2023-05-16T10:58:45.425Z,72.43
2023-05-16T10:59:46.408Z,72.25
2023-05-16T11:00:46.411Z,71.99
2023-05-16T11:01:46.465Z,72.60
2023-05-16T11:02:46.498Z,72.27
2023-05-16T11:03:45.524Z,72.56
2023-05-16T11:04:46.375Z,72.32
2023-05-16T11:05:45.451Z,73.19
2023-05-16T11:06:46.355Z,73.39
2023-05-16T11:07:46.359Z,73.97
2023-05-16T11:08:45.510Z,73.50
2023-05-16T11:09:46.351Z,73.29
2023-05-16T11:10:46.388Z,73.35
2023-05-16T11:11:48.646Z,72.64
2023-05-16T11:12:46.334Z,73.07
2023-05-16T11:13:47.137Z,72.95
2023-05-16T11:14:47.102Z,73.19
2023-05-16T11:15:45.436Z,73.50
2023-05-16T11:16:45.395Z,73.08
2023-05-16T11:17:46.690Z,72.91
2023-05-16T11:18:45.360Z,73.13
2023-05-16T11:19:46.826Z,73.90
2023-05-16T11:20:45.261Z,72.79
2023-05-16T11:21:46.265Z,73.25
2023-05-16T11:22:46.255Z,73.76
2023-05-16T11:23:46.255Z,73.41
2023-05-16T11:24:45.314Z,72.93
2023-05-16T11:25:45.376Z,72.74
2023-05-16T11:26:46.307Z,72.87
2023-05-16T11:29:04.364Z,73.72
2023-05-16T11:30:04.804Z,73.21
2023-05-16T11:31:05.294Z,72.87
2023-05-16T11:32:05.399Z,72.31
2023-05-16T11:33:05.293Z,73.07
2023-05-16T11:34:05.261Z,73.08
2023-05-16T11:35:05.278Z,73.06
2023-05-16T11:36:15.023Z,73.30
2023-05-16T11:37:05.203Z,72.69
2023-05-16T11:38:04.221Z,72.89
2023-05-16T11:39:05.392Z,72.66
2023-05-16T11:40:04.537Z,73.35
2023-05-16T11:41:04.187Z,73.95
2023-05-16T11:42:04.200Z,73.06
2023-05-16T11:43:07.184Z,73.35
2023-05-16T11:44:05.412Z,72.94
2023-05-16T11:45:05.286Z,73.05
2023-05-16T11:46:04.173Z,72.99
2023-05-16T11:47:04.395Z,73.43
2023-05-16T11:48:04.564Z,72.20
2023-05-16T11:50:23.463Z,72.99
2023-05-16T11:51:23.353Z,73.16
2023-05-16T11:52:24.057Z,73.07
2023-05-16T11:53:24.703Z,72.74
2023-05-16T11:54:24.149Z,72.58
2023-05-16T11:55:39.489Z,73.52
2023-05-16T11:59:12.330Z,76.45
2023-05-16T12:02:04.331Z,76.94
2023-05-16T12:03:06.242Z,74.59
2023-05-16T12:04:04.809Z,75.36
2023-05-16T12:06:23.209Z,75.66
2023-05-16T12:08:42.364Z,76.65
2023-05-16T12:12:22.879Z,76.22
2023-05-16T12:13:22.475Z,76.73
2023-05-16T12:16:05.438Z,77.36
2023-05-16T12:17:04.310Z,74.91
2023-05-16T12:18:05.182Z,75.11
2023-05-16T12:20:23.390Z,75.86
2023-05-16T12:21:23.653Z,76.02
2023-05-16T12:22:25.023Z,75.44
2023-05-16T12:28:45.640Z,76.41
2023-05-16T12:32:21.479Z,74.79
2023-05-16T12:34:40.708Z,74.52
2023-05-16T12:36:59.961Z,74.57
2023-05-16T12:38:00.630Z,74.39
2023-05-16T12:39:00.591Z,74.62
2023-05-16T12:39:59.513Z,75.28
2023-05-16T12:40:59.509Z,74.28
2023-05-16T12:42:01.178Z,74.52
2023-05-16T12:42:59.510Z,73.98
2023-05-16T12:43:59.530Z,74.33
2023-05-16T12:46:18.524Z,75.55
2023-05-16T12:47:19.495Z,74.48
2023-05-16T12:54:10.080Z,77.78
2023-05-16T12:55:04.603Z,75.65
2023-05-16T12:56:03.800Z,74.84
2023-05-16T12:57:03.442Z,74.57
2023-05-16T12:58:03.515Z,73.78
2023-05-16T12:59:04.483Z,73.08
2023-05-16T13:01:23.541Z,72.01
2023-05-16T13:02:22.749Z,71.92
2023-05-16T13:03:24.139Z,71.44
2023-05-16T13:04:22.804Z,71.68
2023-05-16T13:05:24.837Z,71.75
2023-05-16T13:06:24.406Z,71.30
2023-05-16T13:07:23.660Z,71.95
2023-05-16T13:08:23.639Z,71.17
2023-05-16T13:09:23.735Z,69.82
2023-05-16T13:14:02.312Z,73.32
2023-05-16T13:15:02.955Z,73.02
2023-05-16T13:16:03.918Z,72.99
2023-05-16T14:11:14.299Z,75.57
2023-05-16T14:12:13.924Z,72.76
2023-05-16T14:13:15.278Z,73.31
2023-05-16T14:14:13.871Z,73.63
2023-05-16T14:15:13.857Z,72.59
2023-05-16T14:16:14.883Z,73.11
2023-05-16T14:17:13.879Z,73.33
2023-05-16T14:18:13.956Z,73.76
2023-05-16T14:19:17.287Z,72.16
2023-05-16T14:20:14.821Z,72.94
2023-05-16T14:21:14.874Z,72.60
2023-05-16T14:22:13.773Z,73.15
2023-05-16T14:23:13.804Z,71.99
2023-05-16T14:24:14.852Z,72.10
2023-05-16T14:25:13.829Z,72.52
2023-05-16T14:26:13.952Z,72.27
2023-05-16T14:27:13.937Z,72.99
2023-05-16T14:28:14.958Z,72.53
2023-05-16T14:29:14.983Z,72.32
2023-05-16T14:30:15.093Z,72.15
2023-05-16T14:31:14.053Z,71.05
2023-05-16T14:32:14.301Z,71.97
2023-05-16T14:33:15.225Z,71.57
2023-05-16T14:34:14.223Z,71.51
2023-05-16T14:35:15.176Z,71.39
2023-05-16T14:36:15.287Z,72.13
2023-05-16T14:37:15.205Z,71.78
2023-05-16T14:38:15.405Z,71.43
2023-05-16T14:39:14.397Z,71.61
2023-05-16T14:40:14.432Z,71.15
2023-05-16T14:41:14.345Z,70.84
2023-05-16T14:42:14.438Z,70.94
2023-05-16T14:43:15.470Z,71.92
2023-05-16T14:44:14.461Z,72.02
2023-05-16T14:45:14.621Z,72.29
2023-05-16T14:46:15.585Z,72.43
2023-05-16T14:47:15.719Z,73.03
2023-05-16T14:48:14.796Z,73.17
2023-05-16T14:49:15.665Z,72.31
2023-05-16T14:50:14.720Z,72.69
2023-05-16T14:51:14.772Z,72.41
2023-05-16T14:52:15.794Z,72.05
2023-05-16T14:53:15.846Z,71.30
2023-05-16T14:54:14.870Z,71.13
2023-05-16T14:55:14.905Z,71.01
2023-05-16T14:56:16.042Z,70.53
2023-05-16T14:57:14.930Z,71.25
2023-05-16T14:58:16.020Z,71.55
2023-05-16T14:59:15.081Z,71.09
2023-05-16T15:00:15.101Z,71.30
2023-05-16T15:01:15.231Z,71.58
2023-05-16T15:02:16.154Z,71.12
2023-05-16T15:03:15.991Z,70.27
2023-05-16T15:04:15.333Z,70.54
2023-05-16T15:05:16.308Z,71.22
2023-05-16T15:22:25.382Z,75.01
2023-05-16T15:23:25.787Z,73.19
2023-05-16T15:24:25.326Z,72.59
2023-05-16T15:25:25.504Z,72.67
2023-05-16T15:26:25.598Z,72.11
2023-05-16T15:27:26.172Z,71.77
2023-05-16T15:28:25.215Z,72.76
2023-05-16T15:29:25.238Z,72.64
2023-05-16T15:30:25.257Z,72.49
2023-05-16T15:31:26.200Z,72.51
2023-05-16T15:32:26.321Z,72.51
2023-05-16T15:33:26.179Z,72.60
2023-05-16T15:34:26.169Z,72.88
2023-05-16T15:35:25.209Z,72.52
2023-05-16T15:36:25.219Z,72.38
2023-05-16T15:37:26.201Z,71.94
2023-05-16T15:38:26.227Z,71.93
2023-05-16T15:39:25.141Z,71.51
2023-05-16T15:40:27.176Z,71.21
2023-05-16T15:41:43.668Z,71.47
2023-05-16T15:42:26.145Z,71.42
2023-05-16T15:43:25.161Z,71.94
2023-05-16T15:44:25.087Z,72.59
2023-05-16T15:45:26.299Z,71.72
2023-05-16T15:46:25.183Z,72.58
2023-05-16T15:47:25.103Z,72.74
2023-05-16T15:48:25.084Z,72.42
2023-05-16T15:49:25.120Z,72.73
2023-05-16T15:50:26.100Z,72.87
2023-05-16T15:51:25.092Z,72.59
2023-05-16T15:52:25.094Z,72.98
2023-05-16T15:53:25.282Z,73.56
2023-05-16T15:54:25.149Z,73.42
2023-05-16T15:55:25.158Z,73.61
2023-05-16T15:56:26.017Z,73.26
2023-05-16T15:57:25.989Z,72.56
2023-05-16T15:58:26.057Z,72.79
2023-05-16T15:59:25.975Z,73.48
2023-05-16T16:00:27.967Z,72.33
2023-05-16T16:01:25.114Z,72.15
2023-05-16T16:02:26.132Z,71.92
2023-05-16T16:03:26.097Z,72.65
2023-05-16T16:04:25.948Z,72.24
2023-05-16T16:05:24.974Z,72.64
2023-05-16T16:06:25.000Z,72.79
2023-05-16T16:07:25.957Z,73.02
2023-05-16T16:08:24.972Z,73.58
2023-05-16T16:09:26.027Z,73.58
2023-05-16T16:10:24.972Z,73.61
2023-05-16T16:11:26.017Z,73.57
2023-05-16T16:12:24.922Z,72.55
2023-05-16T16:13:24.939Z,71.88
2023-05-16T16:14:24.945Z,72.11
2023-05-16T16:15:25.905Z,72.12
2023-05-16T16:16:26.154Z,72.19
2023-05-16T16:17:24.927Z,71.75
2023-05-16T16:18:26.000Z,72.21
2023-05-16T16:19:26.743Z,72.87
2023-05-16T16:20:25.897Z,73.09
2023-05-16T16:21:25.889Z,73.33
2023-05-16T16:22:24.857Z,73.35
2023-05-16T16:23:25.882Z,73.67
2023-05-16T16:24:24.900Z,73.43
2023-05-16T16:25:25.983Z,73.10
2023-05-16T16:26:24.915Z,73.54
2023-05-16T16:27:24.839Z,74.43
2023-05-16T16:28:24.808Z,74.29
2023-05-16T16:29:25.802Z,73.95
2023-05-16T16:30:25.808Z,73.57
2023-05-16T16:31:25.917Z,73.43
2023-05-16T16:32:26.001Z,73.65
2023-05-16T16:33:25.830Z,73.23
2023-05-16T16:34:24.870Z,72.61
2023-05-16T16:35:24.943Z,72.31
2023-05-16T16:36:24.957Z,72.47
2023-05-16T16:37:26.066Z,72.62
2023-05-16T16:38:26.039Z,73.10
2023-05-16T16:39:26.076Z,72.40
2023-05-16T16:40:25.112Z,72.01
2023-05-16T16:41:26.149Z,72.20
2023-05-16T16:42:26.347Z,72.43
2023-05-16T16:43:25.234Z,72.41
2023-05-16T16:44:25.335Z,72.82
2023-05-16T16:45:26.486Z,73.11
2023-05-16T16:46:26.331Z,72.91
2023-05-16T16:47:25.379Z,72.52
2023-05-16T16:48:26.348Z,72.62
2023-05-16T16:49:26.397Z,72.45
2023-05-16T16:50:25.412Z,72.51
2023-05-16T16:51:26.433Z,72.50
2023-05-16T16:52:25.424Z,72.67
2023-05-16T16:53:26.462Z,73.31
2023-05-16T16:54:26.456Z,72.95
2023-05-16T16:55:26.779Z,72.81
2023-05-16T16:56:26.628Z,72.18
2023-05-16T16:57:25.598Z,72.20
2023-05-16T16:58:25.602Z,72.89
2023-05-16T16:59:26.530Z,73.44
2023-05-16T17:00:26.584Z,74.40
2023-05-16T17:01:28.973Z,74.65
2023-05-16T17:02:25.685Z,74.83
2023-05-16T17:03:25.658Z,75.67
2023-05-16T17:04:26.624Z,74.90
2023-05-16T17:05:26.747Z,75.39
2023-05-16T17:06:26.621Z,74.73
2023-05-16T17:07:26.611Z,75.03
2023-05-16T17:08:26.676Z,74.77
2023-05-16T17:09:25.594Z,74.79
2023-05-16T17:10:26.845Z,74.99
2023-05-16T17:11:26.558Z,75.38
2023-05-16T17:12:25.580Z,75.58
2023-05-16T17:13:25.542Z,76.10
2023-05-16T17:14:26.613Z,75.86
2023-05-16T17:15:25.698Z,75.84
2023-05-16T17:16:26.631Z,75.64
2023-05-16T17:17:26.570Z,74.90
2023-05-16T17:18:26.550Z,74.62
2023-05-16T17:19:25.550Z,75.35
2023-05-16T17:20:25.507Z,75.08
2023-05-16T17:21:26.521Z,74.81
2023-05-16T17:22:25.524Z,74.79
2023-05-16T17:23:26.499Z,75.25
2023-05-16T17:24:26.479Z,75.12
2023-05-16T17:25:26.658Z,75.15
2023-05-16T17:26:26.493Z,74.26
2023-05-16T17:27:25.474Z,73.93
2023-05-16T17:28:25.487Z,73.69
2023-05-16T17:29:26.449Z,73.59
2023-05-16T17:30:25.514Z,73.17
2023-05-16T17:31:26.428Z,73.61
2023-05-16T17:32:26.471Z,72.93
2023-05-16T17:33:26.518Z,72.39
2023-05-16T17:34:25.492Z,72.22
2023-05-16T17:35:26.527Z,72.47
2023-05-16T17:36:26.396Z,72.84
2023-05-16T17:37:26.409Z,72.71
2023-05-16T17:38:25.525Z,73.14
2023-05-16T17:39:25.393Z,72.95
2023-05-16T17:40:26.448Z,72.59
2023-05-16T17:41:25.415Z,72.17
2023-05-16T17:42:25.495Z,72.14
2023-05-16T17:43:25.501Z,72.26
2023-05-16T17:44:26.611Z,72.32
2023-05-16T17:45:25.836Z,72.46
2023-05-16T17:46:26.670Z,72.06
2023-05-16T17:47:26.755Z,71.77
2023-05-16T17:48:26.757Z,72.13
2023-05-16T17:49:26.820Z,72.39
2023-05-16T17:50:26.823Z,72.49
2023-05-16T17:51:26.850Z,73.12
2023-05-16T17:52:25.907Z,72.54
2023-05-16T17:53:26.899Z,73.06
2023-05-16T17:54:26.884Z,72.45
2023-05-16T17:55:27.085Z,72.69
2023-05-16T17:56:25.978Z,73.05
2023-05-16T17:57:25.993Z,73.99
2023-05-16T17:58:26.029Z,73.45
2023-05-16T17:59:27.053Z,73.29
2023-05-16T18:00:27.138Z,73.41
2023-05-16T18:01:26.146Z,72.78
2023-05-16T18:02:27.335Z,73.50
2023-05-16T18:03:27.273Z,74.12
2023-05-16T18:04:27.322Z,74.22
2023-05-16T18:05:26.705Z,74.48
2023-05-16T18:06:27.458Z,74.17
2023-05-16T18:07:26.556Z,73.70
2023-05-16T18:08:27.512Z,74.10
2023-05-16T18:09:26.558Z,74.59
2023-05-16T18:10:33.838Z,74.62
2023-05-16T18:11:27.562Z,73.92
2023-05-16T18:12:27.615Z,73.60
2023-05-16T18:13:27.541Z,73.15
2023-05-16T18:14:26.529Z,74.11
2023-05-16T18:15:27.760Z,74.80
2023-05-16T18:16:27.526Z,74.73
2023-05-16T18:17:26.490Z,75.36
2023-05-16T18:18:27.550Z,76.04
2023-05-16T18:19:26.573Z,75.51
2023-05-16T18:20:26.590Z,75.68
2023-05-16T18:21:26.490Z,75.24
2023-05-16T18:22:27.551Z,75.16
2023-05-16T18:23:27.497Z,75.24
2023-05-16T18:30:38.164Z,77.29
2023-05-16T18:31:36.938Z,75.75
2023-05-16T18:32:37.899Z,75.91
2023-05-16T18:33:38.109Z,76.28
2023-05-16T18:34:37.707Z,75.92
2023-05-16T18:35:37.804Z,76.35
2023-05-16T18:36:37.733Z,75.69
2023-05-16T18:37:36.807Z,75.49
2023-05-16T18:38:36.795Z,74.80
2023-05-16T18:39:37.715Z,75.61
2023-05-16T18:40:36.718Z,75.51
2023-05-16T18:41:37.722Z,75.22
2023-05-16T18:42:37.698Z,75.30
2023-05-16T18:43:37.715Z,75.22
2023-05-16T18:44:36.721Z,74.60
2023-05-16T18:45:37.644Z,73.90
2023-05-16T18:46:36.698Z,73.62
2023-05-16T18:47:36.766Z,73.73
2023-05-16T18:48:37.715Z,73.99
2023-05-16T18:49:36.712Z,73.42
2023-05-16T18:50:36.663Z,73.35
2023-05-16T18:51:37.685Z,73.86
2023-05-16T18:52:36.680Z,73.41
2023-05-16T18:53:37.701Z,73.72
2023-05-16T18:54:37.698Z,74.34
2023-05-16T18:55:37.737Z,74.15
2023-05-16T18:56:37.819Z,73.67
2023-05-16T18:57:37.827Z,73.70
2023-05-16T18:58:37.881Z,73.45
2023-05-16T18:59:37.873Z,73.34
2023-05-16T19:00:36.932Z,73.20
2023-05-16T19:01:38.004Z,73.29
2023-05-16T19:02:42.031Z,73.26
2023-05-16T19:03:38.163Z,73.38
2023-05-16T19:04:37.084Z,72.99
2023-05-16T19:05:37.481Z,72.72
2023-05-16T19:06:38.146Z,72.81
2023-05-16T19:07:38.081Z,72.92
2023-05-16T19:08:47.009Z,72.86
2023-05-16T19:22:24.169Z,77.33
2023-05-16T19:23:25.202Z,75.14
2023-05-16T19:24:23.738Z,75.51
2023-05-16T19:25:24.917Z,75.49
2023-05-16T19:26:24.833Z,75.97
2023-05-16T19:27:24.933Z,76.31
2023-05-16T19:28:25.109Z,75.83
2023-05-16T19:29:23.742Z,76.09
2023-05-16T19:30:24.762Z,75.87
2023-05-16T19:31:24.703Z,75.56
2023-05-16T19:32:24.802Z,75.72
2023-05-16T19:33:24.774Z,76.10
2023-05-16T19:34:24.779Z,75.81
2023-05-16T19:35:23.702Z,75.72
2023-05-16T19:36:24.785Z,75.86
2023-05-16T19:37:24.715Z,75.59
2023-05-16T19:38:24.757Z,75.92
2023-05-16T19:39:24.696Z,75.94
2023-05-16T19:40:23.788Z,76.15
2023-05-16T19:41:24.854Z,76.12
2023-05-16T19:42:23.815Z,75.89
2023-05-16T19:43:23.836Z,75.87
2023-05-16T19:44:23.872Z,76.28
2023-05-16T19:45:24.945Z,76.87
2023-05-16T19:46:24.998Z,77.09
2023-05-16T19:47:25.071Z,77.38
2023-05-16T19:48:25.155Z,77.80
2023-05-16T19:49:26.637Z,78.10
2023-05-16T19:50:24.079Z,78.36
2023-05-16T19:51:40.310Z,77.67
2023-05-16T19:52:25.056Z,77.53
2023-05-16T19:53:24.073Z,77.09
2023-05-16T19:54:25.070Z,76.66
2023-05-16T19:55:24.996Z,76.24
2023-05-16T19:56:24.019Z,76.02
2023-05-16T19:57:24.073Z,76.03
2023-05-16T19:58:25.125Z,76.26
2023-05-16T19:59:25.030Z,75.69
2023-05-16T20:00:24.975Z,75.81
2023-05-16T20:01:24.998Z,75.68
2023-05-16T20:02:24.727Z,75.81
2023-05-16T20:03:24.041Z,75.77
2023-05-16T20:04:25.117Z,76.08
2023-05-16T20:05:25.222Z,76.46
2023-05-16T20:06:24.058Z,76.43
2023-05-16T20:07:24.148Z,77.02
2023-05-16T20:08:24.127Z,77.38
2023-05-16T20:09:25.288Z,77.89
2023-05-16T20:10:24.244Z,78.24
2023-05-16T20:11:24.259Z,78.20
2023-05-16T20:12:25.296Z,78.35
2023-05-16T20:13:25.290Z,78.25
2023-05-16T20:14:25.289Z,78.90
2023-05-16T20:15:25.424Z,78.84
2023-05-16T20:16:25.373Z,78.94
2023-05-16T20:17:25.382Z,79.20
2023-05-16T20:18:25.398Z,78.44
2023-05-16T20:19:25.494Z,78.77
2023-05-16T20:20:25.404Z,78.59
2023-05-16T20:21:24.422Z,78.18
2023-05-16T20:22:24.452Z,78.14
2023-05-16T20:23:25.533Z,78.55
2023-05-16T20:24:25.472Z,78.67
2023-05-16T20:25:25.603Z,78.37
2023-05-16T20:26:25.565Z,78.50
2023-05-16T20:27:24.499Z,78.37
2023-05-16T20:28:24.589Z,78.22
2023-05-16T20:29:24.558Z,78.77
2023-05-16T20:30:24.531Z,78.85
2023-05-16T20:31:24.594Z,78.29
2023-05-16T20:32:24.650Z,77.80
2023-05-16T20:33:25.816Z,77.49
2023-05-16T20:34:25.688Z,77.10
2023-05-16T20:35:25.887Z,76.90
2023-05-16T20:36:25.727Z,77.25
2023-05-16T20:37:24.734Z,76.77
2023-05-16T20:38:25.750Z,77.13
2023-05-16T20:39:24.824Z,77.23
2023-05-16T20:40:25.758Z,76.84
2023-05-16T20:41:24.785Z,77.16
2023-05-16T20:42:25.906Z,76.68
2023-05-16T20:43:26.694Z,76.35
2023-05-16T20:44:24.957Z,76.54
2023-05-16T20:45:25.040Z,76.46
2023-05-16T20:46:25.111Z,76.42
2023-05-16T20:47:26.164Z,77.12
2023-05-16T20:48:26.356Z,76.89
2023-05-16T20:49:25.277Z,76.90
2023-05-16T20:50:26.248Z,77.10
2023-05-16T20:51:25.266Z,77.11
2023-05-16T20:52:25.277Z,77.66
2023-05-16T20:53:26.371Z,77.33
2023-05-16T20:54:25.459Z,77.67
2023-05-16T20:55:25.766Z,78.02
2023-05-16T20:56:25.508Z,78.76
2023-05-16T20:57:26.522Z,79.35
2023-05-16T20:58:26.536Z,79.33
2023-05-16T20:59:25.572Z,79.52
2023-05-16T21:00:25.514Z,79.96
2023-05-16T21:01:25.541Z,79.87
2023-05-16T21:02:26.617Z,79.92
2023-05-16T21:03:25.679Z,79.82
2023-05-16T21:04:25.664Z,79.70
2023-05-16T21:05:26.669Z,79.75
2023-05-16T21:06:25.680Z,79.68
2023-05-16T21:07:26.793Z,79.50
2023-05-16T21:08:26.823Z,79.28
2023-05-16T21:09:26.748Z,79.34
2023-05-16T21:10:26.797Z,79.44
2023-05-16T21:11:26.779Z,79.17
2023-05-16T21:12:26.828Z,78.92
2023-05-16T21:13:26.847Z,78.61
2023-05-16T21:14:27.014Z,79.00
2023-05-16T21:15:27.032Z,78.38
2023-05-16T21:16:26.936Z,78.11
2023-05-16T21:17:26.981Z,77.95
2023-05-16T21:18:27.111Z,77.89
2023-05-16T21:19:27.136Z,77.42
2023-05-16T21:20:26.109Z,77.05
2023-05-16T21:21:26.100Z,76.78
2023-05-16T21:22:27.112Z,76.61
2023-05-16T21:23:26.154Z,76.31
2023-05-16T21:24:26.136Z,76.40
2023-05-16T21:25:27.396Z,76.52
2023-05-16T21:26:26.231Z,76.66
2023-05-16T21:27:27.202Z,76.23
2023-05-16T21:28:27.300Z,76.36
2023-05-16T21:29:27.308Z,76.79
2023-05-16T21:30:26.533Z,76.71
2023-05-16T21:31:26.406Z,77.13
2023-05-16T21:32:26.411Z,77.97
2023-05-16T21:33:26.537Z,78.57
2023-05-16T21:34:26.501Z,78.67
2023-05-16T21:35:27.649Z,79.21
2023-05-16T21:36:27.545Z,79.20
2023-05-16T21:37:26.512Z,79.42
2023-05-16T21:38:27.534Z,78.89
2023-05-16T21:39:26.657Z,78.65
2023-05-16T21:40:26.642Z,78.71
2023-05-16T21:41:27.663Z,78.96
2023-05-16T21:42:26.710Z,79.04
2023-05-16T21:43:27.668Z,79.22
2023-05-16T21:44:27.733Z,79.74
2023-05-16T21:45:26.792Z,79.57
2023-05-16T21:46:26.741Z,79.24
2023-05-16T21:47:27.821Z,79.55
2023-05-16T21:48:27.951Z,79.66